Time;durP1;ratioP1;P1;durP2;ratioP2;P2;SDS_P1;SDS_P2;PMS_P1;PMS_P2;Temp;Humidity;BMP_temperature;BMP_pressure;BME280_temperature;BME280_humidity;BME280_pressure;Samples;Min_cycle;Max_cycle;Signal;HPM_P1;HPM_P2
2021/01/03 00:02:00;;;;;;;12.55;10.93;;;;;;;2.83;88.09;100267.89;1720004;83;22220;-61
2021/01/03 00:04:28;;;;;;;11.33;9.75;;;;;;;2.85;87.99;100270.05;1719837;83;21147;-59
2021/01/03 00:06:56;;;;;;;9.98;8.55;;;;;;;2.88;87.81;100270.92;1719906;83;21472;-59
2021/01/03 00:09:23;;;;;;;11.03;8.50;;;;;;;2.89;87.44;100266.64;1719907;83;21111;-60
2021/01/03 00:11:51;;;;;;;11.10;9.40;;;;;;;2.81;87.07;100273.45;1719870;83;21166;-60
2021/01/03 00:14:19;;;;;;;11.50;8.83;;;;;;;2.73;87.12;100276.88;1719721;83;21317;-60
2021/01/03 00:16:52;;;;;;;8.98;8.05;;;;;;;2.69;87.19;100275.15;1719805;83;21075;-60
2021/01/03 00:19:23;;;;;;;8.88;7.60;;;;;;;2.63;87.07;100276.41;1719919;83;21099;-59
2021/01/03 00:21:51;;;;;;;10.38;8.70;;;;;;;2.58;87.07;100275.98;1720009;83;21476;-61
2021/01/03 00:24:19;;;;;;;13.95;9.65;;;;;;;2.53;87.37;100277.23;1719891;83;21043;-60
2021/01/03 00:26:47;;;;;;;11.20;9.13;;;;;;;2.52;87.42;100279.80;1719880;83;21142;-60
2021/01/03 00:29:16;;;;;;;10.65;8.73;;;;;;;2.50;87.62;100286.20;1719878;83;21582;-60
2021/01/03 00:31:45;;;;;;;11.90;8.98;;;;;;;2.50;87.65;100294.34;1719861;83;21112;-61
2021/01/03 00:34:13;;;;;;;9.93;8.25;;;;;;;2.50;87.66;100295.20;1719919;83;21575;-60
2021/01/03 00:36:41;;;;;;;12.93;7.97;;;;;;;2.52;87.72;100290.93;1719881;83;21198;-61
2021/01/03 00:39:09;;;;;;;10.48;8.08;;;;;;;2.53;87.71;100301.63;1719865;83;21504;-61
2021/01/03 00:41:37;;;;;;;12.73;9.05;;;;;;;2.52;87.73;100295.20;1719790;83;21481;-60
2021/01/03 00:44:06;;;;;;;12.10;9.40;;;;;;;2.51;87.81;100293.48;1719835;82;21659;-60
2021/01/03 00:46:34;;;;;;;9.58;8.05;;;;;;;2.52;87.79;100303.77;1719883;83;21134;-60
2021/01/03 00:49:02;;;;;;;9.48;8.03;;;;;;;2.53;87.61;100297.78;1719874;83;21583;-60
2021/01/03 00:51:30;;;;;;;10.50;8.53;;;;;;;2.51;87.71;100302.05;1719941;83;22238;-60
2021/01/03 00:53:57;;;;;;;10.95;9.08;;;;;;;2.52;87.85;100299.05;1719810;83;21072;-60
2021/01/03 00:56:25;;;;;;;9.85;8.08;;;;;;;2.52;87.79;100292.21;1719853;83;21480;-61
2021/01/03 00:58:53;;;;;;;8.95;7.58;;;;;;;2.52;87.82;100299.05;1719949;83;21587;-61
2021/01/03 01:01:21;;;;;;;9.10;8.13;;;;;;;2.52;87.75;100302.48;1719893;83;21187;-60
2021/01/03 01:03:50;;;;;;;9.00;6.87;;;;;;;2.53;87.57;100299.06;1719855;83;21160;-60
2021/01/03 01:06:18;;;;;;;9.55;7.85;;;;;;;2.51;87.44;100299.91;1719800;83;21080;-59
2021/01/03 01:08:47;;;;;;;8.43;7.28;;;;;;;2.46;87.46;100301.16;1719821;82;21492;-60
2021/01/03 01:11:14;;;;;;;8.90;7.17;;;;;;;2.44;87.58;100302.86;1719895;83;21155;-60
2021/01/03 01:13:42;;;;;;;8.95;7.20;;;;;;;2.43;87.70;100298.58;1719817;83;21103;-60
2021/01/03 01:16:09;;;;;;;8.90;7.85;;;;;;;2.43;87.54;100296.01;1706944;83;21222;-60
2021/01/03 01:18:37;;;;;;;12.73;8.93;;;;;;;2.45;87.71;100299.88;1706259;84;21513;-60
2021/01/03 01:21:06;;;;;;;12.68;8.85;;;;;;;2.46;87.73;100298.59;1706327;84;21552;-59
2021/01/03 01:23:33;;;;;;;8.80;7.08;;;;;;;2.50;87.87;100293.05;1706333;84;21178;-60
2021/01/03 01:26:01;;;;;;;10.20;7.58;;;;;;;2.55;87.73;100296.08;1706498;84;21171;-60
2021/01/03 01:28:29;;;;;;;10.40;7.28;;;;;;;2.53;87.50;100291.36;1706498;84;21489;-61
2021/01/03 01:30:58;;;;;;;9.38;7.45;;;;;;;2.52;87.33;100294.78;1706395;84;21064;-60
2021/01/03 01:33:27;;;;;;;10.38;8.58;;;;;;;2.51;87.35;100289.63;1706512;84;21064;-60
2021/01/03 01:35:54;;;;;;;11.12;8.85;;;;;;;2.48;87.29;100289.19;1706439;84;21125;-60
2021/01/03 01:38:22;;;;;;;8.98;8.05;;;;;;;2.44;87.43;100281.04;1706566;84;21502;-60
2021/01/03 01:40:49;;;;;;;12.18;8.68;;;;;;;2.40;87.42;100273.74;1706473;84;21214;-59
2021/01/03 01:43:17;;;;;;;9.83;7.80;;;;;;;2.35;87.59;100275.88;1706359;82;21072;-60
2021/01/03 01:45:46;;;;;;;10.15;8.40;;;;;;;2.36;87.78;100275.03;1706477;83;21120;-60
2021/01/03 01:48:19;;;;;;;12.03;8.65;;;;;;;2.34;87.78;100271.59;1706438;84;21164;-60
2021/01/03 01:51:05;;;;;;;9.43;8.17;;;;;;;2.33;87.90;100281.01;1706629;83;21092;-58
2021/01/03 01:53:50;;;;;;;11.38;8.45;;;;;;;2.29;87.83;100282.27;1706573;84;21583;-60
2021/01/03 01:56:26;;;;;;;10.75;7.90;;;;;;;2.22;88.02;100284.35;1700019;83;21517;-58
2021/01/03 01:59:11;;;;;;;11.00;7.83;;;;;;;2.20;88.32;100284.80;1706403;83;21155;-60
2021/01/03 02:01:46;;;;;;;10.38;8.00;;;;;;;2.20;88.47;100279.20;1694292;84;21084;-59
2021/01/03 02:04:22;;;;;;;12.78;9.30;;;;;;;2.23;88.69;100279.66;1706485;83;21564;-60
2021/01/03 02:07:08;;;;;;;10.15;8.18;;;;;;;2.24;88.77;100283.52;1706512;84;21221;-60
2021/01/03 02:09:57;;;;;;;14.23;10.30;;;;;;;2.26;88.67;100273.26;1706504;82;21092;-60
2021/01/03 02:12:33;;;;;;;14.45;9.95;;;;;;;2.24;88.77;100277.52;1706511;84;21568;-59
2021/01/03 02:15:01;;;;;;;15.45;10.13;;;;;;;2.23;88.90;100262.55;1709111;83;21937;-59
2021/01/03 02:17:28;;;;;;;14.03;9.35;;;;;;;2.22;89.06;100270.23;1714338;83;21492;-60
2021/01/03 02:19:57;;;;;;;13.13;9.80;;;;;;;2.25;89.28;100274.11;1714435;83;22177;-60
2021/01/03 02:22:41;;;;;;;14.10;10.48;;;;;;;2.30;89.37;100272.00;1714326;83;22077;-60
2021/01/03 02:25:12;;;;;;;14.35;10.15;;;;;;;2.37;89.28;100267.34;1714446;83;21496;-59
2021/01/03 02:28:09;;;;;;;13.80;9.80;;;;;;;2.40;89.27;100267.33;1714452;83;21080;-60
2021/01/03 02:30:38;;;;;;;14.40;10.78;;;;;;;2.45;89.12;100266.06;1714390;83;21092;-60
2021/01/03 02:33:17;;;;;;;14.07;10.32;;;;;;;2.47;89.17;100258.38;1714277;83;21383;-60
2021/01/03 02:35:46;;;;;;;12.18;10.05;;;;;;;2.49;89.07;100261.37;1714276;83;21571;-60
2021/01/03 02:38:17;;;;;;;14.35;9.88;;;;;;;2.49;88.92;100257.53;1714306;83;21139;-60
2021/01/03 02:40:44;;;;;;;12.50;9.90;;;;;;;2.50;89.17;100250.27;1714427;83;21623;-60
2021/01/03 02:43:12;;;;;;;13.28;9.58;;;;;;;2.52;89.08;100244.70;1714414;83;21572;-60
2021/01/03 02:45:39;;;;;;;12.98;10.15;;;;;;;2.52;88.98;100241.28;1714301;83;21384;-60
2021/01/03 02:48:12;;;;;;;12.75;9.20;;;;;;;2.49;89.03;100238.70;1714248;83;21083;-60
2021/01/03 02:50:39;;;;;;;14.98;11.20;;;;;;;2.49;89.20;100239.56;1714328;83;21047;-60
2021/01/03 02:53:08;;;;;;;14.45;10.88;;;;;;;2.49;89.18;100245.12;1714283;83;21084;-60
2021/01/03 02:55:36;;;;;;;14.30;10.30;;;;;;;2.50;89.42;100248.12;1714330;83;21060;-60
2021/01/03 02:58:04;;;;;;;13.85;10.38;;;;;;;2.54;89.44;100247.28;1714355;83;23573;-60
2021/01/03 03:00:36;;;;;;;14.45;10.60;;;;;;;2.55;89.36;100256.28;1714231;83;21167;-59
2021/01/03 03:03:06;;;;;;;17.17;12.43;;;;;;;2.58;89.41;100247.73;1714443;83;21543;-60
2021/01/03 03:05:34;;;;;;;15.85;11.53;;;;;;;2.62;89.49;100246.44;1714269;82;21143;-60
2021/01/03 03:08:02;;;;;;;19.92;13.08;;;;;;;2.66;89.40;100241.75;1714309;83;21143;-60
2021/01/03 03:10:30;;;;;;;18.07;12.85;;;;;;;2.71;89.35;100243.05;1714374;83;23540;-60
2021/01/03 03:13:00;;;;;;;17.27;12.80;;;;;;;2.74;89.23;100240.49;1714167;83;21104;-60
2021/01/03 03:15:32;;;;;;;18.35;13.03;;;;;;;2.78;89.14;100241.36;1716403;83;21080;-60
2021/01/03 03:18:00;;;;;;;16.30;13.05;;;;;;;2.78;89.02;100243.50;1719897;83;21505;-60
2021/01/03 03:20:28;;;;;;;22.50;15.50;;;;;;;2.76;88.93;100244.78;1719968;83;21083;-60
2021/01/03 03:22:56;;;;;;;20.57;13.98;;;;;;;2.77;89.07;100239.22;1719924;83;21987;-60
2021/01/03 03:25:23;;;;;;;18.17;12.90;;;;;;;2.79;88.92;100245.22;1719872;83;21140;-60
2021/01/03 03:27:50;;;;;;;18.23;12.80;;;;;;;2.81;88.90;100238.34;1719882;83;21064;-60
2021/01/03 03:30:20;;;;;;;20.25;14.05;;;;;;;2.81;88.84;100238.34;1719892;83;22053;-59
2021/01/03 03:32:52;;;;;;;19.35;14.13;;;;;;;2.81;88.73;100235.78;1719904;83;21202;-59
2021/01/03 03:35:24;;;;;;;18.82;14.07;;;;;;;2.82;88.86;100235.35;1719954;83;21226;-59
2021/01/03 03:37:51;;;;;;;19.92;13.22;;;;;;;2.84;88.83;100237.08;1719970;83;21191;-60
2021/01/03 03:40:19;;;;;;;18.02;13.38;;;;;;;2.88;88.84;100236.66;1719894;83;21084;-60
2021/01/03 03:42:46;;;;;;;16.55;12.45;;;;;;;2.91;88.70;100233.67;1719905;83;21071;-59
2021/01/03 03:45:15;;;;;;;19.05;13.62;;;;;;;2.93;88.65;100234.53;1719889;82;21179;-58
2021/01/03 03:47:42;;;;;;;18.37;13.70;;;;;;;2.93;88.54;100240.10;1719921;83;22108;-60
2021/01/03 03:50:17;;;;;;;18.80;13.40;;;;;;;2.93;88.44;100233.25;1719835;83;21104;-59
2021/01/03 03:52:44;;;;;;;18.90;12.65;;;;;;;2.93;88.42;100235.82;1719981;83;21185;-61
2021/01/03 03:55:13;;;;;;;19.05;11.80;;;;;;;2.94;88.27;100237.97;1719873;83;21163;-60
2021/01/03 03:57:41;;;;;;;16.82;12.30;;;;;;;2.95;88.30;100240.97;1719878;83;21631;-60
2021/01/03 04:00:19;;;;;;;17.40;12.07;;;;;;;2.95;88.25;100242.25;1719891;83;21500;-61
2021/01/03 04:02:47;;;;;;;16.40;11.35;;;;;;;2.94;88.25;100235.39;1719879;83;21096;-60
2021/01/03 04:05:23;;;;;;;18.87;12.23;;;;;;;2.96;88.22;100242.69;1719897;83;21583;-59
2021/01/03 04:07:50;;;;;;;15.30;11.15;;;;;;;2.94;88.10;100244.39;1719918;83;21088;-59
2021/01/03 04:10:19;;;;;;;17.02;12.35;;;;;;;2.93;88.28;100243.53;1719882;83;21131;-60
2021/01/03 04:12:46;;;;;;;20.20;13.20;;;;;;;2.95;88.22;100239.25;1719871;83;21277;-59
2021/01/03 04:15:15;;;;;;;17.30;12.63;;;;;;;2.94;88.21;100245.67;1719675;83;21337;-59
2021/01/03 04:17:44;;;;;;;21.55;13.93;;;;;;;2.90;88.23;100242.66;1719910;83;21147;-60
2021/01/03 04:20:16;;;;;;;15.38;11.78;;;;;;;2.86;88.30;100245.64;1719949;82;21558;-59
2021/01/03 04:22:45;;;;;;;17.07;12.43;;;;;;;2.84;88.44;100248.64;1719901;82;21185;-59
2021/01/03 04:25:14;;;;;;;17.50;12.60;;;;;;;2.84;88.55;100248.64;1719893;83;21202;-59
2021/01/03 04:27:42;;;;;;;19.42;13.38;;;;;;;2.83;88.64;100249.91;1719850;83;21587;-59
2021/01/03 04:30:11;;;;;;;22.27;14.85;;;;;;;2.83;88.82;100248.62;1719899;83;21056;-60
2021/01/03 04:32:38;;;;;;;32.08;19.15;;;;;;;2.87;88.84;100243.94;1719850;83;21504;-60
2021/01/03 04:35:08;;;;;;;17.37;12.95;;;;;;;2.88;88.83;100254.22;1719854;83;21072;-60
2021/01/03 04:37:35;;;;;;;16.05;12.30;;;;;;;2.93;88.91;100254.23;1719891;83;21491;-59
2021/01/03 04:40:07;;;;;;;15.43;12.05;;;;;;;2.95;88.83;100261.52;1719860;83;21147;-59
2021/01/03 04:42:35;;;;;;;12.68;10.25;;;;;;;2.96;88.79;100255.53;1718442;83;21147;-59
2021/01/03 04:45:14;;;;;;;12.37;9.98;;;;;;;2.97;88.76;100256.82;1719786;82;21999;-60
2021/01/03 04:48:02;;;;;;;13.43;10.13;;;;;;;2.96;88.65;100252.95;1708552;83;21150;-60
2021/01/03 04:50:51;;;;;;;12.70;11.05;;;;;;;2.97;88.84;100249.53;1719929;82;21512;-60
2021/01/03 04:53:55;;;;;;;16.65;11.70;;;;;;;3.00;88.87;100247.80;1719815;83;21084;-60
2021/01/03 04:56:43;;;;;;;13.28;9.65;;;;;;;3.05;88.92;100249.10;1719979;83;21571;-59
2021/01/03 04:59:41;;;;;;;12.13;9.33;;;;;;;3.09;88.72;100246.97;1719867;83;21068;-60
2021/01/03 05:02:30;;;;;;;14.20;10.50;;;;;;;3.07;88.62;100253.81;1693657;83;21088;-59
2021/01/03 05:05:41;;;;;;;12.00;9.48;;;;;;;3.04;88.65;100249.95;1719857;83;23595;-60
2021/01/03 05:08:37;;;;;;;12.05;9.78;;;;;;;3.03;88.76;100259.80;1666433;84;21945;-60
2021/01/03 05:11:17;;;;;;;11.60;9.03;;;;;;;3.05;88.81;100257.67;1691967;84;32774;-59
2021/01/03 05:13:56;;;;;;;12.07;9.23;;;;;;;3.08;88.66;100248.68;1719924;83;21155;-59
2021/01/03 05:16:23;;;;;;;11.25;8.85;;;;;;;3.08;88.69;100250.39;1719404;83;21123;-60
2021/01/03 05:18:51;;;;;;;12.60;9.83;;;;;;;3.11;88.84;100252.55;1719893;82;21283;-61
2021/01/03 05:21:19;;;;;;;13.10;10.05;;;;;;;3.17;88.68;100252.13;1719794;83;21087;-59
2021/01/03 05:24:03;;;;;;;12.75;9.85;;;;;;;3.18;88.54;100255.99;1719850;83;21056;-59
2021/01/03 05:26:37;;;;;;;12.68;10.00;;;;;;;3.20;88.33;100265.81;1719896;83;21064;-60
2021/01/03 05:29:09;;;;;;;13.98;10.88;;;;;;;3.20;88.38;100250.39;1719934;82;21067;-61
2021/01/03 05:31:36;;;;;;;14.80;11.95;;;;;;;3.19;88.18;100251.28;1719931;83;22136;-60
2021/01/03 05:34:09;;;;;;;16.67;10.72;;;;;;;3.16;88.22;100248.70;1719795;83;21143;-60
2021/01/03 05:36:42;;;;;;;13.70;10.25;;;;;;;3.14;88.11;100253.41;1719977;83;21079;-59
2021/01/03 05:39:21;;;;;;;13.25;9.85;;;;;;;3.10;88.06;100244.41;1719880;83;21063;-60
2021/01/03 05:42:22;;;;;;;13.18;9.70;;;;;;;3.06;88.18;100241.83;1719282;83;21076;-60
2021/01/03 05:45:09;;;;;;;11.90;8.98;;;;;;;3.06;88.34;100240.54;1719776;82;21387;-59
2021/01/03 05:47:41;;;;;;;10.68;8.85;;;;;;;3.02;88.38;100247.37;1719808;83;21076;-60
2021/01/03 05:50:23;;;;;;;10.15;8.55;;;;;;;3.00;88.64;100235.38;1719945;83;21076;-60
2021/01/03 05:53:10;;;;;;;10.30;8.98;;;;;;;3.01;88.70;100232.81;1719842;83;21068;-60
2021/01/03 05:55:38;;;;;;;10.32;8.43;;;;;;;3.02;88.91;100228.53;1719885;83;21060;-60
2021/01/03 05:58:28;;;;;;;13.98;9.88;;;;;;;3.05;88.95;100219.12;1719857;82;21388;-60
2021/01/03 06:00:56;;;;;;;12.28;9.80;;;;;;;3.07;88.92;100221.27;1719884;83;21575;-59
2021/01/03 06:03:30;;;;;;;16.52;11.10;;;;;;;3.07;88.95;100221.70;1693606;83;21099;-59
2021/01/03 06:06:06;;;;;;;11.03;8.43;;;;;;;3.09;89.00;100218.27;1719858;83;21092;-60
2021/01/03 06:08:33;;;;;;;10.55;8.68;;;;;;;3.16;89.20;100229.85;1714563;83;21142;-59
2021/01/03 06:11:17;;;;;;;13.08;9.98;;;;;;;3.22;89.22;100233.69;1719852;83;21505;-60
2021/01/03 06:13:54;;;;;;;10.93;8.93;;;;;;;3.30;89.20;100234.13;1719920;83;21114;-61
2021/01/03 06:16:28;;;;;;;14.35;10.15;;;;;;;3.41;89.08;100239.26;1691846;83;21055;-60
2021/01/03 06:19:05;;;;;;;13.55;8.93;;;;;;;3.48;88.81;100242.27;1716386;83;21124;-59
2021/01/03 06:21:41;;;;;;;9.58;8.45;;;;;;;3.54;88.75;100241.42;1716327;83;21124;-59
2021/01/03 06:24:24;;;;;;;11.43;9.40;;;;;;;3.58;88.60;100246.56;1716373;83;21206;-60
2021/01/03 06:27:03;;;;;;;10.80;8.83;;;;;;;3.62;88.52;100240.53;1714527;83;21183;-60
2021/01/03 06:29:50;;;;;;;11.53;8.65;;;;;;;3.70;88.33;100234.10;1716394;83;21051;-61
2021/01/03 06:32:54;;;;;;;9.00;7.92;;;;;;;3.74;88.06;100243.11;1716441;83;21492;-60
2021/01/03 06:35:43;;;;;;;10.63;9.48;;;;;;;3.77;87.94;100240.97;1716601;83;21211;-61
2021/01/03 06:38:36;;;;;;;10.72;8.83;;;;;;;3.76;87.90;100237.53;1716355;83;21390;-60
2021/01/03 06:41:26;;;;;;;11.40;8.83;;;;;;;3.79;87.85;100240.11;1716419;83;21588;-60
2021/01/03 06:44:20;;;;;;;12.00;8.15;;;;;;;3.85;87.79;100240.93;1712125;82;21603;-59
2021/01/03 06:46:59;;;;;;;9.53;8.25;;;;;;;3.91;87.64;100239.21;1716383;83;21064;-61
2021/01/03 06:49:47;;;;;;;12.25;8.78;;;;;;;3.94;87.45;100243.50;1685444;83;21079;-59
2021/01/03 06:52:56;;;;;;;11.57;9.55;;;;;;;3.96;87.48;100240.06;1713919;83;23597;-60
2021/01/03 06:56:07;;;;;;;14.43;10.70;;;;;;;4.02;87.33;100245.17;1716281;83;21988;-59
2021/01/03 06:59:01;;;;;;;14.45;11.10;;;;;;;4.07;87.16;100246.45;1716148;83;21575;-60
2021/01/03 07:01:35;;;;;;;15.40;9.13;;;;;;;4.09;86.93;100255.89;1716386;83;21175;-59
2021/01/03 07:04:10;;;;;;;12.30;9.45;;;;;;;4.07;86.53;100251.61;1716462;82;21120;-60
2021/01/03 07:06:40;;;;;;;9.40;7.45;;;;;;;4.02;86.46;100254.19;1716338;83;21075;-59
2021/01/03 07:09:11;;;;;;;10.75;7.80;;;;;;;4.03;86.18;100248.61;1716223;83;21100;-60
2021/01/03 07:11:49;;;;;;;11.55;8.98;;;;;;;4.00;85.92;100246.03;1716428;83;21497;-59
2021/01/03 07:14:28;;;;;;;11.60;9.63;;;;;;;3.95;85.89;100250.36;1716301;83;21068;-60
2021/01/03 07:17:04;;;;;;;10.70;8.98;;;;;;;3.92;86.02;100246.08;1711946;83;21148;-59
2021/01/03 07:19:43;;;;;;;13.88;10.50;;;;;;;3.92;86.17;100248.64;1706366;84;21218;-60
2021/01/03 07:22:17;;;;;;;11.93;9.63;;;;;;;3.91;86.11;100254.66;1706363;83;21076;-60
2021/01/03 07:24:56;;;;;;;11.65;9.03;;;;;;;3.87;85.78;100246.50;1705887;84;21171;-60
2021/01/03 07:27:35;;;;;;;13.85;10.38;;;;;;;3.84;85.88;100246.50;1706391;84;21176;-60
2021/01/03 07:30:09;;;;;;;16.02;12.80;;;;;;;3.86;85.98;100254.22;1706501;84;21604;-60
2021/01/03 07:32:42;;;;;;;15.10;11.60;;;;;;;3.90;86.11;100252.94;1706388;84;21479;-60
2021/01/03 07:35:27;;;;;;;19.52;13.98;;;;;;;3.97;86.13;100248.64;1706383;84;21093;-61
2021/01/03 07:38:23;;;;;;;14.78;11.22;;;;;;;4.04;85.98;100251.61;1706403;84;21568;-61
2021/01/03 07:40:58;;;;;;;14.53;10.75;;;;;;;4.08;86.01;100256.75;1706413;84;21191;-60
2021/01/03 07:43:25;;;;;;;;;;;;;;;4.16;85.54;100255.45;1708998;82;21124;-60
2021/01/03 07:45:52;;;;;;;14.65;10.28;;;;;;;4.17;85.35;100252.02;1706438;84;23549;-60
2021/01/03 07:48:40;;;;;;;12.37;9.40;;;;;;;4.19;85.20;100255.45;1706351;84;21072;-60
2021/01/03 07:51:11;;;;;;;17.57;10.32;;;;;;;4.25;85.07;100258.41;1706405;82;21080;-59
2021/01/03 07:53:39;;;;;;;14.83;10.25;;;;;;;4.29;84.91;100261.41;1706439;84;21076;-60
2021/01/03 07:56:25;;;;;;;18.48;10.43;;;;;;;4.35;84.59;100267.84;1706485;84;21064;-60
2021/01/03 07:58:56;;;;;;;23.80;10.20;;;;;;;4.38;84.30;100261.39;1706390;84;21212;-60
2021/01/03 08:01:28;;;;;;;10.05;8.00;;;;;;;4.45;83.88;100261.77;1706263;82;21172;-60
2021/01/03 08:03:55;;;;;;;9.90;8.63;;;;;;;4.46;83.21;100272.50;1706613;84;21576;-60
2021/01/03 08:06:23;;;;;;;11.20;7.87;;;;;;;4.44;82.72;100266.06;1706346;83;21579;-60
2021/01/03 08:08:54;;;;;;;12.80;9.08;;;;;;;4.42;82.91;100272.94;1706367;84;21610;-61
2021/01/03 08:11:38;;;;;;;14.63;8.63;;;;;;;4.47;83.07;100273.78;1706463;84;22345;-59
2021/01/03 08:14:10;;;;;;;12.73;7.67;;;;;;;4.57;83.22;100276.34;1706380;82;21568;-60
2021/01/03 08:16:37;;;;;;;13.48;7.47;;;;;;;4.72;82.94;100269.82;1708405;83;21211;-61
2021/01/03 08:19:08;;;;;;;9.25;7.62;;;;;;;4.82;82.46;100272.75;1719978;83;21146;-60
2021/01/03 08:21:40;;;;;;;14.83;9.05;;;;;;;4.84;82.03;100278.33;1693636;83;21575;-60
2021/01/03 08:24:15;;;;;;;10.93;8.73;;;;;;;4.85;81.64;100274.89;1719926;83;21423;-60
2021/01/03 08:27:00;;;;;;;18.05;9.15;;;;;;;4.89;81.67;100274.45;1719853;83;21155;-60
2021/01/03 08:29:44;;;;;;;9.35;7.62;;;;;;;4.96;81.36;100276.14;1719894;83;21060;-61
2021/01/03 08:32:16;;;;;;;11.10;7.37;;;;;;;5.01;80.97;100274.36;1719900;83;21473;-61
2021/01/03 08:34:44;;;;;;;14.50;8.20;;;;;;;5.06;80.52;100270.04;1720082;83;21111;-60
2021/01/03 08:37:18;;;;;;;15.35;8.83;;;;;;;5.09;80.29;100276.47;1719831;83;22222;-59
2021/01/03 08:39:47;;;;;;;24.37;8.90;;;;;;;5.09;80.03;100277.77;1719829;83;21163;-60
2021/01/03 08:42:25;;;;;;;17.60;8.88;;;;;;;5.09;80.15;100282.06;1719927;83;21547;-61
2021/01/03 08:44:56;;;;;;;14.73;9.40;;;;;;;5.14;80.12;100277.30;1719916;82;21119;-61
2021/01/03 08:47:40;;;;;;;27.45;13.65;;;;;;;5.22;80.03;100282.83;1719918;83;21145;-60
2021/01/03 08:50:25;;;;;;;19.27;11.57;;;;;;;5.28;79.98;100283.65;1718732;83;21396;-60
2021/01/03 08:53:05;;;;;;;22.27;12.80;;;;;;;5.34;79.20;100281.03;1719891;83;21555;-61
2021/01/03 08:55:36;;;;;;;31.27;14.43;;;;;;;5.26;78.47;100284.52;1719833;83;21123;-59
2021/01/03 08:58:12;;;;;;;28.52;13.90;;;;;;;5.10;78.76;100287.64;1719868;83;21086;-59
2021/01/03 09:00:44;;;;;;;30.57;10.13;;;;;;;5.00;78.78;100284.25;1719986;83;21477;-60
2021/01/03 09:03:18;;;;;;;16.32;8.88;;;;;;;4.97;79.27;100295.04;1719980;83;22271;-60
2021/01/03 09:05:48;;;;;;;13.40;9.03;;;;;;;4.99;79.02;100290.73;1719793;83;21135;-60
2021/01/03 09:08:32;;;;;;;18.77;10.13;;;;;;;4.98;78.67;100287.30;1719946;83;21604;-60
2021/01/03 09:11:17;;;;;;;19.60;12.47;;;;;;;4.99;78.10;100285.58;1719885;83;21096;-61
2021/01/03 09:13:49;;;;;;;23.12;13.85;;;;;;;4.94;77.86;100288.17;1719733;83;21144;-60
2021/01/03 09:16:49;;;;;;;22.87;9.80;;;;;;;4.87;77.73;100286.91;1720054;83;22403;-60
2021/01/03 09:19:27;;;;;;;37.28;21.02;;;;;;;4.84;77.92;100283.48;1719764;83;21091;-60
2021/01/03 09:22:00;;;;;;;16.02;11.65;;;;;;;4.88;77.98;100286.91;1719906;83;21552;-60
2021/01/03 09:24:34;;;;;;;22.10;8.60;;;;;;;4.91;78.03;100286.89;1719879;83;21068;-60
2021/01/03 09:27:04;;;;;;;12.88;7.30;;;;;;;4.96;77.69;100288.17;1719966;83;21189;-60
2021/01/03 09:29:37;;;;;;;17.80;6.30;;;;;;;4.97;77.49;100286.02;1719843;83;21372;-59
2021/01/03 09:32:23;;;;;;;13.25;6.35;;;;;;;4.97;77.55;100283.44;1719825;83;21531;-59
2021/01/03 09:35:16;;;;;;;11.70;6.30;;;;;;;4.98;77.39;100283.86;1719836;83;21060;-61
2021/01/03 09:37:55;;;;;;;12.37;6.80;;;;;;;5.03;77.52;100275.64;1719845;83;21579;-60
2021/01/03 09:40:37;;;;;;;6.87;5.42;;;;;;;5.11;77.27;100274.74;1695579;83;21147;-61
2021/01/03 09:43:40;;;;;;;13.13;6.08;;;;;;;5.21;77.10;100279.39;1720034;83;21279;-61
2021/01/03 09:46:27;;;;;;;17.98;7.08;;;;;;;5.33;76.89;100273.30;1719943;83;21117;-60
2021/01/03 09:48:54;;;;;;;15.70;5.85;;;;;;;5.47;75.97;100270.17;1719997;83;21123;-60
2021/01/03 09:51:35;;;;;;;14.73;6.05;;;;;;;5.51;75.16;100266.27;1720046;83;21154;-60
2021/01/03 09:54:08;;;;;;;10.95;5.97;;;;;;;5.53;75.01;100258.53;1719769;83;21191;-60
2021/01/03 09:56:38;;;;;;;13.38;5.87;;;;;;;5.60;74.78;100251.13;1720225;83;21452;-61
2021/01/03 09:59:11;;;;;;;22.30;8.05;;;;;;;5.63;74.50;100259.28;1719933;83;21135;-61
2021/01/03 10:01:39;;;;;;;18.37;9.45;;;;;;;5.63;74.27;100250.25;1720017;82;21083;-60
2021/01/03 10:04:27;;;;;;;18.80;10.25;;;;;;;5.58;74.53;100249.03;1719941;83;21149;-60
2021/01/03 10:07:13;;;;;;;22.80;9.23;;;;;;;5.49;74.90;100240.92;1719997;83;21161;-59
2021/01/03 10:09:47;;;;;;;10.70;7.60;;;;;;;5.46;75.23;100250.41;1708416;83;21395;-60
2021/01/03 10:12:35;;;;;;;18.20;8.40;;;;;;;5.50;74.97;100238.77;1873559;76;22690;-61
2021/01/03 10:15:08;;;;;;;21.17;7.30;;;;;;;5.43;74.94;100233.66;1841671;77;21045;-60
2021/01/03 10:17:35;;;;;;;;;;;;;;;5.41;74.98;100225.07;1844252;77;21190;-61
2021/01/03 10:20:37;;;;;;;31.30;8.10;;;;;;;5.43;75.00;100216.45;1841402;78;20230;-59
2021/01/03 10:23:07;;;;;;;12.23;7.83;;;;;;;5.45;74.98;100206.98;1841432;78;21511;-61
2021/01/03 10:25:35;;;;;;;10.95;6.67;;;;;;;5.52;75.00;100206.50;1841536;78;21018;-61
2021/01/03 10:28:12;;;;;;;13.18;7.00;;;;;;;5.63;74.58;100198.64;1841587;78;21053;-60
2021/01/03 10:30:41;;;;;;;8.45;6.47;;;;;;;5.68;74.54;100206.77;1841626;77;22250;-60
2021/01/03 10:33:10;;;;;;;15.53;9.28;;;;;;;5.69;73.80;100192.99;1841461;77;21067;-61
2021/01/03 10:35:38;;;;;;;20.82;9.15;;;;;;;5.65;73.99;100190.02;1841460;78;21044;-59
2021/01/03 10:38:07;;;;;;;15.28;8.30;;;;;;;5.65;73.70;100183.56;1841578;78;21541;-60
2021/01/03 10:40:35;;;;;;;14.30;8.30;;;;;;;5.60;73.87;100182.75;1841501;78;21129;-61
2021/01/03 10:43:03;;;;;;;8.73;6.92;;;;;;;5.59;74.14;100185.38;1841492;77;21292;-61
2021/01/03 10:45:31;;;;;;;14.00;8.20;;;;;;;5.54;74.15;100177.67;1811814;78;21069;-60
2021/01/03 10:47:58;;;;;;;25.05;11.12;;;;;;;5.46;74.57;100179.45;1808379;79;21057;-60
2021/01/03 10:50:26;;;;;;;25.00;14.53;;;;;;;5.45;75.04;100179.03;1808410;79;21073;-60
2021/01/03 10:52:54;;;;;;;9.20;6.85;;;;;;;5.48;75.37;100175.14;1808535;79;21489;-60
2021/01/03 10:55:22;;;;;;;9.45;6.47;;;;;;;5.50;75.21;100179.85;1808437;79;21147;-61
2021/01/03 10:57:51;;;;;;;29.82;10.00;;;;;;;5.42;75.07;100172.61;1808359;79;21073;-60
2021/01/03 11:00:21;;;;;;;17.07;8.88;;;;;;;5.31;75.41;100172.72;1808418;79;21065;-59
2021/01/03 11:02:48;;;;;;;18.15;9.05;;;;;;;5.24;75.91;100172.34;1808439;79;21156;-60
2021/01/03 11:05:17;;;;;;;19.55;9.10;;;;;;;5.23;76.36;100170.62;1808409;78;21105;-60
2021/01/03 11:07:45;;;;;;;14.80;7.58;;;;;;;5.26;76.58;100178.78;1808524;79;21517;-61
2021/01/03 11:10:13;;;;;;;15.08;7.83;;;;;;;5.27;76.70;100189.08;1808295;79;21073;-61
2021/01/03 11:12:40;;;;;;;13.50;6.12;;;;;;;5.34;76.86;100182.16;1808374;79;21081;-61
2021/01/03 11:15:11;;;;;;;12.45;8.00;;;;;;;5.44;76.80;100179.47;1808120;79;21501;-60
2021/01/03 11:17:41;;;;;;;20.27;9.45;;;;;;;5.52;76.29;100179.41;1805872;79;21516;-60
2021/01/03 11:20:10;;;;;;;21.48;11.18;;;;;;;5.54;75.19;100172.08;1808454;79;21518;-60
2021/01/03 11:22:38;;;;;;;10.98;6.95;;;;;;;5.51;75.37;100175.11;1808067;79;21121;-60
2021/01/03 11:25:09;;;;;;;13.00;7.42;;;;;;;5.52;75.31;100177.68;1807871;78;21099;-60
2021/01/03 11:27:38;;;;;;;11.28;5.75;;;;;;;5.54;75.43;100181.54;1807847;79;21006;-61
2021/01/03 11:30:08;;;;;;;12.33;8.10;;;;;;;5.62;75.76;100181.01;1807903;78;21113;-59
2021/01/03 11:32:35;;;;;;;19.60;9.83;;;;;;;5.71;75.73;100186.09;1807848;79;21352;-61
2021/01/03 11:35:06;;;;;;;17.95;9.08;;;;;;;5.79;75.76;100184.73;1807802;78;21203;-61
2021/01/03 11:37:33;;;;;;;18.10;9.95;;;;;;;5.83;75.78;100191.11;1807872;78;21049;-61
2021/01/03 11:40:01;;;;;;;22.85;12.00;;;;;;;5.85;75.52;100193.24;1807757;78;21073;-62
2021/01/03 11:42:33;;;;;;;17.35;8.08;;;;;;;5.90;75.72;100194.96;1807532;79;21049;-60
2021/01/03 11:45:01;;;;;;;15.72;7.92;;;;;;;5.98;75.28;100195.74;1807805;78;21416;-60
2021/01/03 11:47:29;;;;;;;9.90;6.80;;;;;;;5.95;74.71;100191.91;1807795;79;21121;-61
2021/01/03 11:49:57;;;;;;;17.55;10.45;;;;;;;5.90;74.80;100189.80;1807831;78;21101;-60
2021/01/03 11:52:27;;;;;;;25.17;10.35;;;;;;;5.84;74.77;100194.11;1807533;78;21125;-60
2021/01/03 11:54:55;;;;;;;18.23;9.55;;;;;;;5.77;74.84;100187.77;1807869;79;21161;-60
2021/01/03 11:57:23;;;;;;;21.57;11.35;;;;;;;5.70;75.11;100188.69;1807808;79;23582;-62